sensor_id;sensor_type;location;lat;lon;timestamp;P1;durP1;ratioP1;P2;durP2;ratioP2
64950;SDS011;51482;47.014;7.652;2023-12-20T00:00:13;8.47;;;5.00;;
64950;SDS011;51482;47.014;7.652;2023-12-20T00:02:38;6.80;;;5.30;;
64950;SDS011;51482;47.014;7.652;2023-12-20T00:05:04;7.00;;;5.10;;
64950;SDS011;51482;47.014;7.652;2023-12-20T00:07:30;7.30;;;5.10;;
64950;SDS011;51482;47.014;7.652;2023-12-20T00:09:56;6.13;;;4.87;;
64950;SDS011;51482;47.014;7.652;2023-12-20T00:12:21;7.23;;;5.47;;
64950;SDS011;51482;47.014;7.652;2023-12-20T00:14:47;9.67;;;6.03;;
64950;SDS011;51482;47.014;7.652;2023-12-20T00:17:12;6.60;;;5.10;;
64950;SDS011;51482;47.014;7.652;2023-12-20T00:19:38;7.03;;;5.40;;
64950;SDS011;51482;47.014;7.652;2023-12-20T00:22:03;7.67;;;5.03;;
64950;SDS011;51482;47.014;7.652;2023-12-20T00:24:29;6.20;;;4.70;;
64950;SDS011;51482;47.014;7.652;2023-12-20T00:26:54;6.70;;;5.27;;
64950;SDS011;51482;47.014;7.652;2023-12-20T00:29:20;6.40;;;5.03;;
64950;SDS011;51482;47.014;7.652;2023-12-20T00:31:45;7.30;;;4.90;;
64950;SDS011;51482;47.014;7.652;2023-12-20T00:34:11;7.07;;;4.97;;
64950;SDS011;51482;47.014;7.652;2023-12-20T00:36:36;7.57;;;5.43;;
64950;SDS011;51482;47.014;7.652;2023-12-20T00:39:02;6.10;;;5.00;;
64950;SDS011;51482;47.014;7.652;2023-12-20T00:41:28;5.60;;;4.40;;
64950;SDS011;51482;47.014;7.652;2023-12-20T00:43:53;6.70;;;5.20;;
64950;SDS011;51482;47.014;7.652;2023-12-20T00:46:19;6.23;;;4.80;;
64950;SDS011;51482;47.014;7.652;2023-12-20T00:48:44;10.43;;;5.63;;
64950;SDS011;51482;47.014;7.652;2023-12-20T00:51:10;6.03;;;4.53;;
64950;SDS011;51482;47.014;7.652;2023-12-20T00:53:36;5.60;;;4.83;;
64950;SDS011;51482;47.014;7.652;2023-12-20T00:56:02;5.50;;;4.70;;
64950;SDS011;51482;47.014;7.652;2023-12-20T00:58:27;5.63;;;4.90;;
64950;SDS011;51482;47.014;7.652;2023-12-20T01:00:53;5.20;;;4.70;;
64950;SDS011;51482;47.014;7.652;2023-12-20T01:03:19;4.67;;;4.10;;
64950;SDS011;51482;47.014;7.652;2023-12-20T01:05:44;5.83;;;5.20;;
64950;SDS011;51482;47.014;7.652;2023-12-20T01:08:10;6.67;;;5.07;;
64950;SDS011;51482;47.014;7.652;2023-12-20T01:10:35;7.90;;;5.20;;
64950;SDS011;51482;47.014;7.652;2023-12-20T01:13:01;4.73;;;4.23;;
64950;SDS011;51482;47.014;7.652;2023-12-20T01:15:26;6.37;;;4.50;;
64950;SDS011;51482;47.014;7.652;2023-12-20T01:17:52;5.67;;;4.93;;
64950;SDS011;51482;47.014;7.652;2023-12-20T01:20:17;5.00;;;4.50;;
64950;SDS011;51482;47.014;7.652;2023-12-20T01:22:45;5.37;;;4.57;;
64950;SDS011;51482;47.014;7.652;2023-12-20T01:25:11;6.23;;;4.63;;
64950;SDS011;51482;47.014;7.652;2023-12-20T01:27:36;5.70;;;4.67;;
64950;SDS011;51482;47.014;7.652;2023-12-20T01:30:02;6.10;;;3.93;;
64950;SDS011;51482;47.014;7.652;2023-12-20T01:32:28;4.97;;;4.40;;
64950;SDS011;51482;47.014;7.652;2023-12-20T01:34:53;5.10;;;4.17;;
64950;SDS011;51482;47.014;7.652;2023-12-20T01:37:19;6.40;;;4.50;;
64950;SDS011;51482;47.014;7.652;2023-12-20T01:39:44;6.43;;;4.97;;
64950;SDS011;51482;47.014;7.652;2023-12-20T01:42:10;6.30;;;4.40;;
64950;SDS011;51482;47.014;7.652;2023-12-20T01:44:35;5.53;;;5.00;;
64950;SDS011;51482;47.014;7.652;2023-12-20T01:47:01;6.43;;;4.60;;
64950;SDS011;51482;47.014;7.652;2023-12-20T01:49:27;5.80;;;4.17;;
64950;SDS011;51482;47.014;7.652;2023-12-20T01:51:53;6.33;;;4.77;;
64950;SDS011;51482;47.014;7.652;2023-12-20T01:54:19;5.20;;;4.37;;
64950;SDS011;51482;47.014;7.652;2023-12-20T01:56:45;6.40;;;5.00;;
64950;SDS011;51482;47.014;7.652;2023-12-20T01:59:11;5.00;;;4.20;;
64950;SDS011;51482;47.014;7.652;2023-12-20T02:01:37;6.20;;;4.83;;
64950;SDS011;51482;47.014;7.652;2023-12-20T02:06:52;4.67;;;4.20;;
64950;SDS011;51482;47.014;7.652;2023-12-20T02:09:27;6.17;;;4.63;;
64950;SDS011;51482;47.014;7.652;2023-12-20T02:11:53;7.73;;;4.70;;
64950;SDS011;51482;47.014;7.652;2023-12-20T02:14:19;6.50;;;4.13;;
64950;SDS011;51482;47.014;7.652;2023-12-20T02:16:45;6.53;;;4.63;;
64950;SDS011;51482;47.014;7.652;2023-12-20T02:19:13;6.63;;;4.00;;
64950;SDS011;51482;47.014;7.652;2023-12-20T02:21:40;4.73;;;4.20;;
64950;SDS011;51482;47.014;7.652;2023-12-20T02:24:05;7.33;;;4.83;;
64950;SDS011;51482;47.014;7.652;2023-12-20T02:26:33;6.30;;;4.30;;
64950;SDS011;51482;47.014;7.652;2023-12-20T02:28:59;5.97;;;4.13;;
64950;SDS011;51482;47.014;7.652;2023-12-20T02:31:25;6.97;;;4.60;;
64950;SDS011;51482;47.014;7.652;2023-12-20T02:33:51;5.90;;;4.80;;
64950;SDS011;51482;47.014;7.652;2023-12-20T02:36:16;5.60;;;3.80;;
64950;SDS011;51482;47.014;7.652;2023-12-20T02:38:42;4.43;;;3.83;;
64950;SDS011;51482;47.014;7.652;2023-12-20T02:41:07;5.73;;;4.50;;
64950;SDS011;51482;47.014;7.652;2023-12-20T02:43:33;5.37;;;4.80;;
64950;SDS011;51482;47.014;7.652;2023-12-20T02:45:58;4.87;;;4.37;;
64950;SDS011;51482;47.014;7.652;2023-12-20T02:48:24;4.70;;;4.20;;
64950;SDS011;51482;47.014;7.652;2023-12-20T02:50:49;5.30;;;4.80;;
64950;SDS011;51482;47.014;7.652;2023-12-20T02:53:15;5.03;;;4.53;;
64950;SDS011;51482;47.014;7.652;2023-12-20T02:55:41;5.37;;;4.30;;
64950;SDS011;51482;47.014;7.652;2023-12-20T02:58:06;7.33;;;4.47;;
64950;SDS011;51482;47.014;7.652;2023-12-20T03:00:32;5.37;;;4.43;;
64950;SDS011;51482;47.014;7.652;2023-12-20T03:02:57;5.90;;;4.63;;
64950;SDS011;51482;47.014;7.652;2023-12-20T03:05:24;6.60;;;4.27;;
64950;SDS011;51482;47.014;7.652;2023-12-20T03:07:50;6.70;;;4.40;;
64950;SDS011;51482;47.014;7.652;2023-12-20T03:10:16;6.10;;;4.37;;
64950;SDS011;51482;47.014;7.652;2023-12-20T03:12:41;4.73;;;3.80;;
64950;SDS011;51482;47.014;7.652;2023-12-20T03:15:07;4.83;;;3.63;;
64950;SDS011;51482;47.014;7.652;2023-12-20T03:17:32;4.53;;;4.10;;
64950;SDS011;51482;47.014;7.652;2023-12-20T03:19:58;6.40;;;4.17;;
64950;SDS011;51482;47.014;7.652;2023-12-20T03:22:23;4.90;;;4.00;;
64950;SDS011;51482;47.014;7.652;2023-12-20T03:24:49;5.70;;;3.83;;
64950;SDS011;51482;47.014;7.652;2023-12-20T03:27:15;7.07;;;4.57;;
64950;SDS011;51482;47.014;7.652;2023-12-20T03:29:40;5.23;;;4.17;;
64950;SDS011;51482;47.014;7.652;2023-12-20T03:32:06;4.17;;;3.77;;
64950;SDS011;51482;47.014;7.652;2023-12-20T03:34:31;5.77;;;4.70;;
64950;SDS011;51482;47.014;7.652;2023-12-20T03:36:56;4.73;;;3.90;;
64950;SDS011;51482;47.014;7.652;2023-12-20T03:39:22;4.23;;;3.63;;
64950;SDS011;51482;47.014;7.652;2023-12-20T03:41:47;4.07;;;3.50;;
64950;SDS011;51482;47.014;7.652;2023-12-20T03:44:13;4.60;;;4.10;;
64950;SDS011;51482;47.014;7.652;2023-12-20T03:46:38;4.53;;;4.10;;
64950;SDS011;51482;47.014;7.652;2023-12-20T03:49:04;4.00;;;3.60;;
64950;SDS011;51482;47.014;7.652;2023-12-20T03:51:29;4.73;;;3.77;;
64950;SDS011;51482;47.014;7.652;2023-12-20T03:53:55;5.73;;;3.77;;
64950;SDS011;51482;47.014;7.652;2023-12-20T03:56:20;4.50;;;4.10;;
64950;SDS011;51482;47.014;7.652;2023-12-20T03:58:46;5.93;;;4.07;;
64950;SDS011;51482;47.014;7.652;2023-12-20T04:01:11;5.27;;;4.03;;
64950;SDS011;51482;47.014;7.652;2023-12-20T04:03:38;5.23;;;3.83;;
64950;SDS011;51482;47.014;7.652;2023-12-20T04:06:03;4.53;;;3.60;;
64950;SDS011;51482;47.014;7.652;2023-12-20T04:08:29;5.90;;;3.43;;
64950;SDS011;51482;47.014;7.652;2023-12-20T04:10:55;5.17;;;3.70;;
64950;SDS011;51482;47.014;7.652;2023-12-20T04:13:20;4.70;;;4.10;;
64950;SDS011;51482;47.014;7.652;2023-12-20T04:15:45;6.13;;;5.53;;
64950;SDS011;51482;47.014;7.652;2023-12-20T04:18:11;4.63;;;4.17;;
64950;SDS011;51482;47.014;7.652;2023-12-20T04:20:37;3.50;;;3.20;;
64950;SDS011;51482;47.014;7.652;2023-12-20T04:23:02;5.83;;;3.57;;
64950;SDS011;51482;47.014;7.652;2023-12-20T04:25:28;4.00;;;3.33;;
64950;SDS011;51482;47.014;7.652;2023-12-20T04:27:53;4.37;;;3.57;;
64950;SDS011;51482;47.014;7.652;2023-12-20T04:30:19;4.47;;;3.70;;
64950;SDS011;51482;47.014;7.652;2023-12-20T04:32:44;3.83;;;3.33;;
64950;SDS011;51482;47.014;7.652;2023-12-20T04:35:10;4.23;;;3.50;;
64950;SDS011;51482;47.014;7.652;2023-12-20T04:37:35;4.53;;;3.60;;
64950;SDS011;51482;47.014;7.652;2023-12-20T04:40:01;4.60;;;4.20;;
64950;SDS011;51482;47.014;7.652;2023-12-20T04:42:27;6.00;;;4.13;;
64950;SDS011;51482;47.014;7.652;2023-12-20T04:44:52;4.83;;;4.17;;
64950;SDS011;51482;47.014;7.652;2023-12-20T04:47:18;3.63;;;3.30;;
64950;SDS011;51482;47.014;7.652;2023-12-20T04:49:43;4.40;;;3.80;;
64950;SDS011;51482;47.014;7.652;2023-12-20T04:52:09;5.33;;;3.40;;
64950;SDS011;51482;47.014;7.652;2023-12-20T04:54:34;5.03;;;3.57;;
64950;SDS011;51482;47.014;7.652;2023-12-20T04:57:00;4.80;;;3.20;;
64950;SDS011;51482;47.014;7.652;2023-12-20T04:59:25;3.80;;;3.40;;
64950;SDS011;51482;47.014;7.652;2023-12-20T05:01:51;4.87;;;4.30;;
64950;SDS011;51482;47.014;7.652;2023-12-20T05:04:16;4.00;;;3.40;;
64950;SDS011;51482;47.014;7.652;2023-12-20T05:06:42;3.77;;;3.37;;
64950;SDS011;51482;47.014;7.652;2023-12-20T05:09:07;4.33;;;3.70;;
64950;SDS011;51482;47.014;7.652;2023-12-20T05:11:34;4.07;;;3.17;;
64950;SDS011;51482;47.014;7.652;2023-12-20T05:13:59;4.17;;;3.63;;
64950;SDS011;51482;47.014;7.652;2023-12-20T05:16:25;4.73;;;3.70;;
64950;SDS011;51482;47.014;7.652;2023-12-20T05:18:50;5.00;;;4.17;;
64950;SDS011;51482;47.014;7.652;2023-12-20T05:21:17;4.97;;;3.93;;
64950;SDS011;51482;47.014;7.652;2023-12-20T05:23:42;6.13;;;4.37;;
64950;SDS011;51482;47.014;7.652;2023-12-20T05:26:08;5.37;;;4.87;;
64950;SDS011;51482;47.014;7.652;2023-12-20T05:28:33;6.73;;;4.00;;
64950;SDS011;51482;47.014;7.652;2023-12-20T05:30:59;4.47;;;4.00;;
64950;SDS011;51482;47.014;7.652;2023-12-20T05:33:24;6.80;;;3.80;;
64950;SDS011;51482;47.014;7.652;2023-12-20T05:35:50;5.97;;;3.80;;
64950;SDS011;51482;47.014;7.652;2023-12-20T05:38:15;5.33;;;3.63;;
64950;SDS011;51482;47.014;7.652;2023-12-20T05:40:41;5.67;;;3.80;;
64950;SDS011;51482;47.014;7.652;2023-12-20T05:43:07;4.77;;;3.47;;
64950;SDS011;51482;47.014;7.652;2023-12-20T05:45:32;5.67;;;4.00;;
64950;SDS011;51482;47.014;7.652;2023-12-20T05:47:58;7.30;;;5.30;;
64950;SDS011;51482;47.014;7.652;2023-12-20T05:50:24;6.57;;;5.87;;
64950;SDS011;51482;47.014;7.652;2023-12-20T05:52:49;7.17;;;5.60;;
64950;SDS011;51482;47.014;7.652;2023-12-20T05:55:15;6.23;;;5.27;;
64950;SDS011;51482;47.014;7.652;2023-12-20T05:57:40;7.43;;;5.80;;
64950;SDS011;51482;47.014;7.652;2023-12-20T06:00:08;5.70;;;4.40;;
64950;SDS011;51482;47.014;7.652;2023-12-20T06:02:34;4.07;;;3.60;;
64950;SDS011;51482;47.014;7.652;2023-12-20T06:05:01;7.23;;;4.37;;
64950;SDS011;51482;47.014;7.652;2023-12-20T06:07:28;7.70;;;4.40;;
64950;SDS011;51482;47.014;7.652;2023-12-20T06:09:54;7.10;;;4.90;;
64950;SDS011;51482;47.014;7.652;2023-12-20T06:12:20;6.10;;;4.40;;
64950;SDS011;51482;47.014;7.652;2023-12-20T06:14:45;5.07;;;3.90;;
64950;SDS011;51482;47.014;7.652;2023-12-20T06:17:11;7.27;;;3.90;;
64950;SDS011;51482;47.014;7.652;2023-12-20T06:19:36;5.83;;;3.77;;
64950;SDS011;51482;47.014;7.652;2023-12-20T06:22:02;6.37;;;4.23;;
64950;SDS011;51482;47.014;7.652;2023-12-20T06:24:27;4.30;;;3.87;;
64950;SDS011;51482;47.014;7.652;2023-12-20T06:26:53;5.67;;;5.10;;
64950;SDS011;51482;47.014;7.652;2023-12-20T06:29:20;5.63;;;4.77;;
64950;SDS011;51482;47.014;7.652;2023-12-20T06:31:45;7.07;;;5.00;;
64950;SDS011;51482;47.014;7.652;2023-12-20T06:34:11;7.27;;;4.70;;
64950;SDS011;51482;47.014;7.652;2023-12-20T06:36:37;6.20;;;5.40;;
64950;SDS011;51482;47.014;7.652;2023-12-20T06:39:02;4.80;;;3.70;;
64950;SDS011;51482;47.014;7.652;2023-12-20T06:41:29;7.40;;;4.23;;
64950;SDS011;51482;47.014;7.652;2023-12-20T06:43:55;3.27;;;2.83;;
64950;SDS011;51482;47.014;7.652;2023-12-20T06:46:20;3.10;;;2.83;;
64950;SDS011;51482;47.014;7.652;2023-12-20T06:48:46;3.03;;;2.77;;
64950;SDS011;51482;47.014;7.652;2023-12-20T06:51:15;2.80;;;2.60;;
64950;SDS011;51482;47.014;7.652;2023-12-20T06:53:41;3.07;;;2.77;;
64950;SDS011;51482;47.014;7.652;2023-12-20T06:56:07;4.43;;;3.50;;
64950;SDS011;51482;47.014;7.652;2023-12-20T06:58:34;4.50;;;3.23;;
64950;SDS011;51482;47.014;7.652;2023-12-20T07:01:00;5.07;;;3.93;;
64950;SDS011;51482;47.014;7.652;2023-12-20T07:03:25;5.00;;;4.20;;
64950;SDS011;51482;47.014;7.652;2023-12-20T07:05:51;5.63;;;4.53;;
64950;SDS011;51482;47.014;7.652;2023-12-20T07:08:17;5.77;;;4.67;;
64950;SDS011;51482;47.014;7.652;2023-12-20T07:10:42;6.23;;;4.63;;
64950;SDS011;51482;47.014;7.652;2023-12-20T07:13:08;6.60;;;5.23;;
64950;SDS011;51482;47.014;7.652;2023-12-20T07:15:33;4.33;;;3.47;;
64950;SDS011;51482;47.014;7.652;2023-12-20T07:18:00;5.70;;;4.70;;
64950;SDS011;51482;47.014;7.652;2023-12-20T07:20:26;4.90;;;4.40;;
64950;SDS011;51482;47.014;7.652;2023-12-20T07:22:51;5.83;;;4.53;;
64950;SDS011;51482;47.014;7.652;2023-12-20T07:25:17;4.23;;;3.83;;
64950;SDS011;51482;47.014;7.652;2023-12-20T07:27:43;9.10;;;6.53;;
64950;SDS011;51482;47.014;7.652;2023-12-20T07:30:08;6.63;;;4.77;;
64950;SDS011;51482;47.014;7.652;2023-12-20T07:32:34;8.60;;;5.23;;
64950;SDS011;51482;47.014;7.652;2023-12-20T07:35:00;7.30;;;4.23;;
64950;SDS011;51482;47.014;7.652;2023-12-20T07:37:25;4.93;;;4.03;;
64950;SDS011;51482;47.014;7.652;2023-12-20T07:39:51;4.20;;;3.33;;
64950;SDS011;51482;47.014;7.652;2023-12-20T07:42:16;4.73;;;3.83;;
64950;SDS011;51482;47.014;7.652;2023-12-20T07:44:42;3.40;;;3.10;;
64950;SDS011;51482;47.014;7.652;2023-12-20T07:47:07;5.40;;;4.03;;
64950;SDS011;51482;47.014;7.652;2023-12-20T07:49:33;6.13;;;3.63;;
64950;SDS011;51482;47.014;7.652;2023-12-20T07:51:59;4.17;;;3.20;;
64950;SDS011;51482;47.014;7.652;2023-12-20T07:54:24;4.87;;;3.83;;
64950;SDS011;51482;47.014;7.652;2023-12-20T07:56:50;4.77;;;3.40;;
64950;SDS011;51482;47.014;7.652;2023-12-20T07:59:15;4.13;;;3.73;;
64950;SDS011;51482;47.014;7.652;2023-12-20T08:01:41;5.13;;;3.87;;
64950;SDS011;51482;47.014;7.652;2023-12-20T08:04:07;3.70;;;3.30;;
64950;SDS011;51482;47.014;7.652;2023-12-20T08:06:33;4.80;;;3.40;;
64950;SDS011;51482;47.014;7.652;2023-12-20T08:08:58;3.80;;;3.07;;
64950;SDS011;51482;47.014;7.652;2023-12-20T08:11:24;4.67;;;3.50;;
64950;SDS011;51482;47.014;7.652;2023-12-20T08:13:49;3.63;;;3.23;;
64950;SDS011;51482;47.014;7.652;2023-12-20T08:16:16;4.20;;;3.40;;
64950;SDS011;51482;47.014;7.652;2023-12-20T08:18:42;4.10;;;3.40;;
64950;SDS011;51482;47.014;7.652;2023-12-20T08:21:08;4.97;;;3.47;;
64950;SDS011;51482;47.014;7.652;2023-12-20T08:23:34;7.50;;;4.00;;
64950;SDS011;51482;47.014;7.652;2023-12-20T08:26:08;7.40;;;4.27;;
64950;SDS011;51482;47.014;7.652;2023-12-20T08:28:34;5.90;;;3.67;;
64950;SDS011;51482;47.014;7.652;2023-12-20T08:31:01;3.40;;;2.90;;
64950;SDS011;51482;47.014;7.652;2023-12-20T08:33:26;3.40;;;2.97;;
64950;SDS011;51482;47.014;7.652;2023-12-20T08:35:52;3.00;;;2.60;;
64950;SDS011;51482;47.014;7.652;2023-12-20T08:38:17;2.67;;;2.43;;
64950;SDS011;51482;47.014;7.652;2023-12-20T08:40:43;3.20;;;2.50;;
64950;SDS011;51482;47.014;7.652;2023-12-20T08:43:09;5.97;;;3.30;;
64950;SDS011;51482;47.014;7.652;2023-12-20T08:45:35;5.10;;;3.03;;
64950;SDS011;51482;47.014;7.652;2023-12-20T08:48:00;3.03;;;2.80;;
64950;SDS011;51482;47.014;7.652;2023-12-20T08:50:26;3.53;;;2.90;;
64950;SDS011;51482;47.014;7.652;2023-12-20T08:52:51;7.27;;;3.27;;
64950;SDS011;51482;47.014;7.652;2023-12-20T08:55:18;4.27;;;3.13;;
64950;SDS011;51482;47.014;7.652;2023-12-20T08:57:44;3.43;;;2.77;;
64950;SDS011;51482;47.014;7.652;2023-12-20T09:00:10;4.23;;;2.47;;
64950;SDS011;51482;47.014;7.652;2023-12-20T09:02:36;3.07;;;2.77;;
64950;SDS011;51482;47.014;7.652;2023-12-20T09:05:02;2.80;;;2.53;;
64950;SDS011;51482;47.014;7.652;2023-12-20T09:07:28;3.27;;;2.77;;
64950;SDS011;51482;47.014;7.652;2023-12-20T09:09:56;2.93;;;2.63;;
64950;SDS011;51482;47.014;7.652;2023-12-20T09:12:22;3.83;;;3.07;;
64950;SDS011;51482;47.014;7.652;2023-12-20T09:14:48;3.00;;;2.53;;
64950;SDS011;51482;47.014;7.652;2023-12-20T09:17:15;3.00;;;2.70;;
64950;SDS011;51482;47.014;7.652;2023-12-20T09:19:41;3.83;;;2.90;;
64950;SDS011;51482;47.014;7.652;2023-12-20T09:22:08;2.70;;;2.50;;
64950;SDS011;51482;47.014;7.652;2023-12-20T09:24:34;3.10;;;2.80;;
64950;SDS011;51482;47.014;7.652;2023-12-20T09:27:00;2.80;;;2.43;;
64950;SDS011;51482;47.014;7.652;2023-12-20T09:29:25;3.13;;;2.83;;
64950;SDS011;51482;47.014;7.652;2023-12-20T09:31:51;3.97;;;2.40;;
64950;SDS011;51482;47.014;7.652;2023-12-20T09:34:16;3.00;;;2.53;;
64950;SDS011;51482;47.014;7.652;2023-12-20T09:36:42;2.77;;;2.57;;
64950;SDS011;51482;47.014;7.652;2023-12-20T09:39:13;2.50;;;2.30;;
64950;SDS011;51482;47.014;7.652;2023-12-20T09:41:40;2.83;;;2.63;;
64950;SDS011;51482;47.014;7.652;2023-12-20T09:44:11;2.90;;;2.60;;
64950;SDS011;51482;47.014;7.652;2023-12-20T09:46:41;5.80;;;2.67;;
64950;SDS011;51482;47.014;7.652;2023-12-20T09:49:09;3.30;;;2.47;;
64950;SDS011;51482;47.014;7.652;2023-12-20T09:51:35;2.83;;;2.53;;
64950;SDS011;51482;47.014;7.652;2023-12-20T09:54:02;3.20;;;2.67;;
64950;SDS011;51482;47.014;7.652;2023-12-20T09:56:28;3.87;;;2.60;;
64950;SDS011;51482;47.014;7.652;2023-12-20T09:58:54;2.53;;;2.33;;
64950;SDS011;51482;47.014;7.652;2023-12-20T10:01:20;5.47;;;2.67;;
64950;SDS011;51482;47.014;7.652;2023-12-20T10:03:46;4.47;;;3.43;;
64950;SDS011;51482;47.014;7.652;2023-12-20T10:06:12;5.03;;;3.33;;
64950;SDS011;51482;47.014;7.652;2023-12-20T10:08:38;5.00;;;4.37;;
64950;SDS011;51482;47.014;7.652;2023-12-20T10:11:04;3.33;;;3.03;;
64950;SDS011;51482;47.014;7.652;2023-12-20T10:13:30;2.23;;;2.03;;
64950;SDS011;51482;47.014;7.652;2023-12-20T10:15:56;3.20;;;2.20;;
64950;SDS011;51482;47.014;7.652;2023-12-20T10:18:22;2.23;;;2.10;;
64950;SDS011;51482;47.014;7.652;2023-12-20T10:20:48;2.40;;;2.20;;
64950;SDS011;51482;47.014;7.652;2023-12-20T10:23:14;2.43;;;2.20;;
64950;SDS011;51482;47.014;7.652;2023-12-20T10:25:40;2.77;;;2.57;;
64950;SDS011;51482;47.014;7.652;2023-12-20T10:28:10;2.50;;;1.80;;
64950;SDS011;51482;47.014;7.652;2023-12-20T10:30:43;2.47;;;2.27;;
64950;SDS011;51482;47.014;7.652;2023-12-20T10:33:09;1.50;;;1.40;;
64950;SDS011;51482;47.014;7.652;2023-12-20T10:35:35;1.80;;;1.70;;
64950;SDS011;51482;47.014;7.652;2023-12-20T10:38:05;1.50;;;1.40;;
64950;SDS011;51482;47.014;7.652;2023-12-20T10:40:34;1.80;;;1.70;;
64950;SDS011;51482;47.014;7.652;2023-12-20T10:43:01;1.60;;;1.50;;
64950;SDS011;51482;47.014;7.652;2023-12-20T10:45:27;2.33;;;1.93;;
64950;SDS011;51482;47.014;7.652;2023-12-20T10:47:53;3.53;;;1.83;;
64950;SDS011;51482;47.014;7.652;2023-12-20T10:50:19;1.67;;;1.57;;
64950;SDS011;51482;47.014;7.652;2023-12-20T10:52:45;2.00;;;1.83;;
64950;SDS011;51482;47.014;7.652;2023-12-20T10:55:12;1.90;;;1.80;;
64950;SDS011;51482;47.014;7.652;2023-12-20T10:57:38;1.63;;;1.53;;
64950;SDS011;51482;47.014;7.652;2023-12-20T11:00:05;2.73;;;1.83;;
64950;SDS011;51482;47.014;7.652;2023-12-20T11:02:36;2.97;;;2.40;;
64950;SDS011;51482;47.014;7.652;2023-12-20T11:07:50;1.97;;;1.87;;
64950;SDS011;51482;47.014;7.652;2023-12-20T11:13:32;1.70;;;1.60;;
64950;SDS011;51482;47.014;7.652;2023-12-20T11:16:02;1.80;;;1.70;;
64950;SDS011;51482;47.014;7.652;2023-12-20T11:18:28;1.80;;;1.70;;
64950;SDS011;51482;47.014;7.652;2023-12-20T11:20:55;1.70;;;1.60;;
64950;SDS011;51482;47.014;7.652;2023-12-20T11:23:25;2.33;;;1.60;;
64950;SDS011;51482;47.014;7.652;2023-12-20T11:25:54;1.80;;;1.70;;
64950;SDS011;51482;47.014;7.652;2023-12-20T11:28:23;2.57;;;1.43;;
64950;SDS011;51482;47.014;7.652;2023-12-20T11:30:51;3.10;;;1.53;;
64950;SDS011;51482;47.014;7.652;2023-12-20T11:33:21;2.20;;;1.67;;
64950;SDS011;51482;47.014;7.652;2023-12-20T11:35:47;1.70;;;1.60;;
64950;SDS011;51482;47.014;7.652;2023-12-20T11:38:13;1.70;;;1.60;;
64950;SDS011;51482;47.014;7.652;2023-12-20T11:40:39;1.60;;;1.50;;
64950;SDS011;51482;47.014;7.652;2023-12-20T11:43:07;1.80;;;1.70;;
64950;SDS011;51482;47.014;7.652;2023-12-20T11:45:32;1.77;;;1.67;;
64950;SDS011;51482;47.014;7.652;2023-12-20T11:47:59;1.30;;;1.20;;
64950;SDS011;51482;47.014;7.652;2023-12-20T11:50:27;1.63;;;1.53;;
64950;SDS011;51482;47.014;7.652;2023-12-20T11:52:54;2.20;;;1.40;;
64950;SDS011;51482;47.014;7.652;2023-12-20T11:55:20;1.73;;;1.50;;
64950;SDS011;51482;47.014;7.652;2023-12-20T11:57:46;1.67;;;1.57;;
64950;SDS011;51482;47.014;7.652;2023-12-20T12:00:12;1.60;;;1.50;;
64950;SDS011;51482;47.014;7.652;2023-12-20T12:02:39;1.43;;;1.33;;
64950;SDS011;51482;47.014;7.652;2023-12-20T12:05:05;1.30;;;1.30;;
64950;SDS011;51482;47.014;7.652;2023-12-20T12:07:31;3.17;;;1.60;;
64950;SDS011;51482;47.014;7.652;2023-12-20T12:09:57;1.03;;;1.03;;
64950;SDS011;51482;47.014;7.652;2023-12-20T12:12:23;1.50;;;1.40;;
64950;SDS011;51482;47.014;7.652;2023-12-20T12:14:50;1.50;;;1.40;;
64950;SDS011;51482;47.014;7.652;2023-12-20T12:17:15;2.13;;;1.40;;
64950;SDS011;51482;47.014;7.652;2023-12-20T12:19:42;1.60;;;1.50;;
64950;SDS011;51482;47.014;7.652;2023-12-20T12:22:09;1.50;;;1.40;;
64950;SDS011;51482;47.014;7.652;2023-12-20T12:24:48;1.80;;;1.70;;
64950;SDS011;51482;47.014;7.652;2023-12-20T12:27:14;1.53;;;1.33;;
64950;SDS011;51482;47.014;7.652;2023-12-20T12:29:40;1.83;;;1.50;;
64950;SDS011;51482;47.014;7.652;2023-12-20T12:32:24;2.47;;;1.60;;
64950;SDS011;51482;47.014;7.652;2023-12-20T12:34:50;26.17;;;16.70;;
64950;SDS011;51482;47.014;7.652;2023-12-20T12:37:16;2.43;;;2.23;;
64950;SDS011;51482;47.014;7.652;2023-12-20T12:39:42;1.77;;;1.67;;
64950;SDS011;51482;47.014;7.652;2023-12-20T12:42:07;1.40;;;1.30;;
64950;SDS011;51482;47.014;7.652;2023-12-20T12:44:32;1.10;;;1.10;;
64950;SDS011;51482;47.014;7.652;2023-12-20T12:46:58;1.20;;;1.10;;
64950;SDS011;51482;47.014;7.652;2023-12-20T12:49:24;1.17;;;1.17;;
64950;SDS011;51482;47.014;7.652;2023-12-20T12:51:49;1.20;;;1.10;;
64950;SDS011;51482;47.014;7.652;2023-12-20T12:54:16;1.30;;;1.20;;
64950;SDS011;51482;47.014;7.652;2023-12-20T12:56:42;1.70;;;1.57;;
64950;SDS011;51482;47.014;7.652;2023-12-20T12:59:09;2.80;;;1.70;;
64950;SDS011;51482;47.014;7.652;2023-12-20T13:01:34;1.40;;;1.30;;
64950;SDS011;51482;47.014;7.652;2023-12-20T13:04:00;1.80;;;1.40;;
64950;SDS011;51482;47.014;7.652;2023-12-20T13:06:28;1.00;;;1.00;;
64950;SDS011;51482;47.014;7.652;2023-12-20T13:08:54;0.90;;;0.90;;
64950;SDS011;51482;47.014;7.652;2023-12-20T13:11:20;1.33;;;1.23;;
64950;SDS011;51482;47.014;7.652;2023-12-20T13:13:45;1.23;;;1.10;;
64950;SDS011;51482;47.014;7.652;2023-12-20T13:16:11;1.00;;;1.00;;
64950;SDS011;51482;47.014;7.652;2023-12-20T13:18:37;0.80;;;0.80;;
64950;SDS011;51482;47.014;7.652;2023-12-20T13:21:07;0.90;;;0.90;;
64950;SDS011;51482;47.014;7.652;2023-12-20T13:23:32;1.43;;;1.33;;
64950;SDS011;51482;47.014;7.652;2023-12-20T13:25:58;1.33;;;1.23;;
64950;SDS011;51482;47.014;7.652;2023-12-20T13:28:23;1.23;;;1.20;;
64950;SDS011;51482;47.014;7.652;2023-12-20T13:30:49;1.10;;;1.10;;
64950;SDS011;51482;47.014;7.652;2023-12-20T13:33:15;1.10;;;1.10;;
64950;SDS011;51482;47.014;7.652;2023-12-20T13:35:40;1.20;;;1.10;;
64950;SDS011;51482;47.014;7.652;2023-12-20T13:38:06;1.23;;;1.13;;
64950;SDS011;51482;47.014;7.652;2023-12-20T13:40:32;3.30;;;2.40;;
64950;SDS011;51482;47.014;7.652;2023-12-20T13:42:58;1.70;;;1.60;;
64950;SDS011;51482;47.014;7.652;2023-12-20T13:45:23;0.87;;;0.87;;
64950;SDS011;51482;47.014;7.652;2023-12-20T13:47:50;1.37;;;1.27;;
64950;SDS011;51482;47.014;7.652;2023-12-20T13:50:16;1.10;;;1.10;;
64950;SDS011;51482;47.014;7.652;2023-12-20T13:52:41;1.87;;;1.53;;
64950;SDS011;51482;47.014;7.652;2023-12-20T13:55:07;1.10;;;1.10;;
64950;SDS011;51482;47.014;7.652;2023-12-20T13:57:33;1.43;;;1.10;;
64950;SDS011;51482;47.014;7.652;2023-12-20T14:00:02;1.43;;;1.33;;
64950;SDS011;51482;47.014;7.652;2023-12-20T14:02:29;1.23;;;1.13;;
64950;SDS011;51482;47.014;7.652;2023-12-20T14:04:55;2.53;;;1.40;;
64950;SDS011;51482;47.014;7.652;2023-12-20T14:07:20;1.67;;;1.30;;
64950;SDS011;51482;47.014;7.652;2023-12-20T14:09:46;1.97;;;1.40;;
64950;SDS011;51482;47.014;7.652;2023-12-20T14:12:12;1.37;;;1.27;;
64950;SDS011;51482;47.014;7.652;2023-12-20T14:14:38;1.77;;;1.50;;
64950;SDS011;51482;47.014;7.652;2023-12-20T14:17:03;1.50;;;1.40;;
64950;SDS011;51482;47.014;7.652;2023-12-20T14:19:31;1.60;;;1.43;;
64950;SDS011;51482;47.014;7.652;2023-12-20T14:21:57;1.87;;;1.50;;
64950;SDS011;51482;47.014;7.652;2023-12-20T14:24:26;1.60;;;1.50;;
64950;SDS011;51482;47.014;7.652;2023-12-20T14:26:52;2.03;;;1.60;;
64950;SDS011;51482;47.014;7.652;2023-12-20T14:29:18;2.10;;;1.90;;
64950;SDS011;51482;47.014;7.652;2023-12-20T14:31:43;3.20;;;1.90;;
64950;SDS011;51482;47.014;7.652;2023-12-20T14:34:09;1.83;;;1.70;;
64950;SDS011;51482;47.014;7.652;2023-12-20T14:36:34;1.63;;;1.53;;
64950;SDS011;51482;47.014;7.652;2023-12-20T14:39:00;2.07;;;1.60;;
64950;SDS011;51482;47.014;7.652;2023-12-20T14:41:27;2.87;;;1.70;;
64950;SDS011;51482;47.014;7.652;2023-12-20T14:43:53;2.33;;;1.67;;
64950;SDS011;51482;47.014;7.652;2023-12-20T14:46:20;2.10;;;1.70;;
64950;SDS011;51482;47.014;7.652;2023-12-20T14:48:45;3.80;;;2.10;;